الصفحة الرئيسية
METAR-TAF:

METAR-TAF

مطار :

مطار تونس قرطاج الدولي

تونس, تونس

دائرة عرض: 36-50N, خط طول: 010-14E, ارتفاع: 3 متر

مراقبة الطقس الحالي

تاريخ ووقت الإصدار 48 دقيقة قبل الساعة 12:30UTC
ريح 9 عقدة من الشمال/الشمال الشرقي, الاتجاه يتراوح بين الشمال و الشرق/الشمال الشرقي
درجة الحرارة 36°درجة مئوية
الرطوبة 35%
ضغط 1011 hPa
الرؤية 10 كم أو أكثر
غيوم قليلة على ارتفاع 4000 قدم

METAR: DTTA 201230Z 02009KT 350V070 9999 FEW040 36/18 Q1011

زمن: 14:18 (13:18 UTC)

توقعات

تاريخ ووقت الإصدار 2ساعات و 18 دقيقة قبل الساعة 11:00UTC
التوقعات صالحة من20 الساعة 12 UTC إلى 21 الساعة 12 UTC
ريح 10 عقدة من الشمال/الشمال الشرقي
الرؤية 10 كم أو أكثر
غيوم قليلة على ارتفاع 4000 قدم
أصبح
من 20 الساعة 22 UTC إلى 20 الساعة 24 UTC
ريح 3 عقدةمن اتجاهات متغيرة
أصبح
من 21 الساعة 10 UTC إلى 21 الساعة 12 UTC
ريح 10 عقدة من الشرق

TAF: DTTA 201100Z 2012/2112 03010KT 9999 FEW040 BECMG 2022/2024 VRB03KT BECMG 2110/2112 10010KT

أرصاد الطقس والتوقعات من أكثر من 4000 مطار (تقارير الطقس للمطار METAR والتنبؤ بالطقس بالمطارTAF).

المحطات المتاحة هي النقط الصفراء والحمراء على الخريطة.

حرك المؤشر فوق النقطة لمعرفة اسم المحطة.

ثم انقر لمعرفة أرصاد وتوقعات الطقس.

لتغيير الخارطة: اضغط على الأزرار الخضراء مع رمز الصليب الأسود للتكبير. على الزر الأخضر مع شرطة للتصغير، أو على الأسهم الخضراء للخرائط المجاورة.


METAR-TAF: